sensor_id;sensor_type;location;lat;lon;timestamp;temperature;humidity
12922;DHT22;6528;48.086;16.282;2023-09-12T00:02:16;22.50;1.00
12922;DHT22;6528;48.086;16.282;2023-09-12T00:04:44;22.50;1.00
12922;DHT22;6528;48.086;16.282;2023-09-12T00:07:11;22.50;1.00
12922;DHT22;6528;48.086;16.282;2023-09-12T00:09:38;22.60;1.00
12922;DHT22;6528;48.086;16.282;2023-09-12T00:12:06;22.60;1.00
12922;DHT22;6528;48.086;16.282;2023-09-12T00:14:33;22.60;1.00
12922;DHT22;6528;48.086;16.282;2023-09-12T00:17:01;22.50;1.00
12922;DHT22;6528;48.086;16.282;2023-09-12T00:19:28;22.50;1.00
12922;DHT22;6528;48.086;16.282;2023-09-12T00:21:55;22.60;1.00
12922;DHT22;6528;48.086;16.282;2023-09-12T00:24:23;22.50;1.00
12922;DHT22;6528;48.086;16.282;2023-09-12T00:26:50;22.50;1.00
12922;DHT22;6528;48.086;16.282;2023-09-12T00:29:18;22.40;1.00
12922;DHT22;6528;48.086;16.282;2023-09-12T00:31:45;22.40;1.00
12922;DHT22;6528;48.086;16.282;2023-09-12T00:34:16;22.30;1.00
12922;DHT22;6528;48.086;16.282;2023-09-12T00:36:44;22.20;1.00
12922;DHT22;6528;48.086;16.282;2023-09-12T00:39:12;22.20;1.00
12922;DHT22;6528;48.086;16.282;2023-09-12T00:41:39;22.20;1.00
12922;DHT22;6528;48.086;16.282;2023-09-12T00:44:07;22.10;1.00
12922;DHT22;6528;48.086;16.282;2023-09-12T00:46:34;22.10;1.00
12922;DHT22;6528;48.086;16.282;2023-09-12T00:49:04;22.20;1.00
12922;DHT22;6528;48.086;16.282;2023-09-12T00:51:33;22.20;1.00
12922;DHT22;6528;48.086;16.282;2023-09-12T00:54:02;22.20;1.00
12922;DHT22;6528;48.086;16.282;2023-09-12T00:56:29;22.20;1.00
12922;DHT22;6528;48.086;16.282;2023-09-12T00:58:57;22.20;1.00
12922;DHT22;6528;48.086;16.282;2023-09-12T01:01:24;22.30;1.00
12922;DHT22;6528;48.086;16.282;2023-09-12T01:03:52;22.30;1.00
12922;DHT22;6528;48.086;16.282;2023-09-12T01:06:23;22.30;1.00
12922;DHT22;6528;48.086;16.282;2023-09-12T01:08:54;22.20;1.00
12922;DHT22;6528;48.086;16.282;2023-09-12T01:11:22;22.30;1.00
12922;DHT22;6528;48.086;16.282;2023-09-12T01:13:49;22.20;1.00
12922;DHT22;6528;48.086;16.282;2023-09-12T01:16:17;22.20;1.00
12922;DHT22;6528;48.086;16.282;2023-09-12T01:18:44;22.20;1.00
12922;DHT22;6528;48.086;16.282;2023-09-12T01:27:11;22.10;1.00
12922;DHT22;6528;48.086;16.282;2023-09-12T01:29:40;22.10;1.00
12922;DHT22;6528;48.086;16.282;2023-09-12T01:32:09;22.00;1.00
12922;DHT22;6528;48.086;16.282;2023-09-12T01:34:37;22.10;1.00
12922;DHT22;6528;48.086;16.282;2023-09-12T01:37:04;22.10;1.00
12922;DHT22;6528;48.086;16.282;2023-09-12T01:39:32;22.10;1.00
12922;DHT22;6528;48.086;16.282;2023-09-12T01:42:00;22.10;1.00
12922;DHT22;6528;48.086;16.282;2023-09-12T01:44:28;22.10;1.00
12922;DHT22;6528;48.086;16.282;2023-09-12T01:47:00;22.00;1.00
12922;DHT22;6528;48.086;16.282;2023-09-12T01:49:30;21.90;1.00
12922;DHT22;6528;48.086;16.282;2023-09-12T01:52:00;21.80;1.00
12922;DHT22;6528;48.086;16.282;2023-09-12T01:54:28;21.80;1.00
12922;DHT22;6528;48.086;16.282;2023-09-12T01:56:56;21.90;1.00
12922;DHT22;6528;48.086;16.282;2023-09-12T01:59:28;21.90;1.00
12922;DHT22;6528;48.086;16.282;2023-09-12T02:01:56;21.90;1.00
12922;DHT22;6528;48.086;16.282;2023-09-12T02:04:24;22.00;1.00
12922;DHT22;6528;48.086;16.282;2023-09-12T02:06:51;22.00;1.00
12922;DHT22;6528;48.086;16.282;2023-09-12T02:09:18;22.00;1.00
12922;DHT22;6528;48.086;16.282;2023-09-12T02:11:47;22.00;1.00
12922;DHT22;6528;48.086;16.282;2023-09-12T02:14:14;22.00;1.00
12922;DHT22;6528;48.086;16.282;2023-09-12T02:16:41;22.00;1.00
12922;DHT22;6528;48.086;16.282;2023-09-12T02:19:10;21.90;1.00
12922;DHT22;6528;48.086;16.282;2023-09-12T02:21:38;21.80;1.00
12922;DHT22;6528;48.086;16.282;2023-09-12T02:24:06;21.70;92.40
12922;DHT22;6528;48.086;16.282;2023-09-12T02:26:34;21.60;93.30
12922;DHT22;6528;48.086;16.282;2023-09-12T02:29:03;21.60;93.40
12922;DHT22;6528;48.086;16.282;2023-09-12T02:31:34;21.60;93.40
12922;DHT22;6528;48.086;16.282;2023-09-12T02:34:01;21.60;93.40
12922;DHT22;6528;48.086;16.282;2023-09-12T02:36:29;21.60;93.50
12922;DHT22;6528;48.086;16.282;2023-09-12T02:38:56;21.60;93.60
12922;DHT22;6528;48.086;16.282;2023-09-12T02:41:23;21.60;93.50
12922;DHT22;6528;48.086;16.282;2023-09-12T02:43:51;21.60;93.20
12922;DHT22;6528;48.086;16.282;2023-09-12T02:46:18;21.60;93.10
12922;DHT22;6528;48.086;16.282;2023-09-12T02:48:46;21.50;92.60
12922;DHT22;6528;48.086;16.282;2023-09-12T02:51:13;21.50;92.00
12922;DHT22;6528;48.086;16.282;2023-09-12T02:53:41;21.40;15.10
12922;DHT22;6528;48.086;16.282;2023-09-12T02:56:08;21.40;1.00
12922;DHT22;6528;48.086;16.282;2023-09-12T02:58:35;21.40;99.90
12922;DHT22;6528;48.086;16.282;2023-09-12T03:01:03;21.50;1.00
12922;DHT22;6528;48.086;16.282;2023-09-12T03:03:33;21.40;1.00
12922;DHT22;6528;48.086;16.282;2023-09-12T03:06:02;21.40;1.00
12922;DHT22;6528;48.086;16.282;2023-09-12T03:08:30;21.50;1.00
12922;DHT22;6528;48.086;16.282;2023-09-12T03:10:58;21.50;1.00
12922;DHT22;6528;48.086;16.282;2023-09-12T03:13:25;21.40;1.00
12922;DHT22;6528;48.086;16.282;2023-09-12T03:15:53;21.40;1.00
12922;DHT22;6528;48.086;16.282;2023-09-12T03:18:20;21.40;1.00
12922;DHT22;6528;48.086;16.282;2023-09-12T03:20:48;21.50;1.00
12922;DHT22;6528;48.086;16.282;2023-09-12T03:23:15;21.40;1.00
12922;DHT22;6528;48.086;16.282;2023-09-12T03:25:42;21.40;1.00
12922;DHT22;6528;48.086;16.282;2023-09-12T03:28:10;21.40;1.00
12922;DHT22;6528;48.086;16.282;2023-09-12T03:30:38;21.40;1.00
12922;DHT22;6528;48.086;16.282;2023-09-12T03:33:06;21.50;1.00
12922;DHT22;6528;48.086;16.282;2023-09-12T03:35:34;21.50;1.00
12922;DHT22;6528;48.086;16.282;2023-09-12T03:38:02;21.40;1.00
12922;DHT22;6528;48.086;16.282;2023-09-12T03:40:29;21.60;1.00
12922;DHT22;6528;48.086;16.282;2023-09-12T03:43:00;21.90;1.00
12922;DHT22;6528;48.086;16.282;2023-09-12T03:45:27;22.20;1.00
12922;DHT22;6528;48.086;16.282;2023-09-12T03:47:54;22.40;1.00
12922;DHT22;6528;48.086;16.282;2023-09-12T03:50:22;22.70;95.00
12922;DHT22;6528;48.086;16.282;2023-09-12T03:52:49;22.90;95.70
12922;DHT22;6528;48.086;16.282;2023-09-12T03:55:16;23.10;1.00
12922;DHT22;6528;48.086;16.282;2023-09-12T03:57:44;23.20;1.00
12922;DHT22;6528;48.086;16.282;2023-09-12T04:00:12;23.30;1.00
12922;DHT22;6528;48.086;16.282;2023-09-12T04:02:40;23.50;1.00
12922;DHT22;6528;48.086;16.282;2023-09-12T04:05:08;23.60;1.00
12922;DHT22;6528;48.086;16.282;2023-09-12T04:07:36;23.70;1.00
12922;DHT22;6528;48.086;16.282;2023-09-12T04:10:04;23.80;1.00
12922;DHT22;6528;48.086;16.282;2023-09-12T04:12:31;23.80;1.00
12922;DHT22;6528;48.086;16.282;2023-09-12T04:14:58;23.90;1.00
12922;DHT22;6528;48.086;16.282;2023-09-12T04:17:26;24.00;1.00
12922;DHT22;6528;48.086;16.282;2023-09-12T04:19:53;24.00;1.00
12922;DHT22;6528;48.086;16.282;2023-09-12T04:22:21;24.10;1.00
12922;DHT22;6528;48.086;16.282;2023-09-12T04:24:49;24.20;1.00
12922;DHT22;6528;48.086;16.282;2023-09-12T04:27:16;24.20;1.00
12922;DHT22;6528;48.086;16.282;2023-09-12T04:29:44;24.20;1.00
12922;DHT22;6528;48.086;16.282;2023-09-12T04:32:11;24.30;1.00
12922;DHT22;6528;48.086;16.282;2023-09-12T04:34:41;24.30;1.00
12922;DHT22;6528;48.086;16.282;2023-09-12T04:37:09;24.30;1.00
12922;DHT22;6528;48.086;16.282;2023-09-12T04:39:36;24.40;1.00
12922;DHT22;6528;48.086;16.282;2023-09-12T04:42:04;24.40;1.00
12922;DHT22;6528;48.086;16.282;2023-09-12T04:44:35;24.30;1.00
12922;DHT22;6528;48.086;16.282;2023-09-12T04:47:03;24.40;1.00
12922;DHT22;6528;48.086;16.282;2023-09-12T04:49:30;24.40;1.00
12922;DHT22;6528;48.086;16.282;2023-09-12T04:51:58;24.40;1.00
12922;DHT22;6528;48.086;16.282;2023-09-12T04:54:26;24.40;1.00
12922;DHT22;6528;48.086;16.282;2023-09-12T04:56:53;24.40;1.00
12922;DHT22;6528;48.086;16.282;2023-09-12T04:59:21;24.50;1.00
12922;DHT22;6528;48.086;16.282;2023-09-12T05:01:48;24.50;1.00
12922;DHT22;6528;48.086;16.282;2023-09-12T05:04:15;24.50;1.00
12922;DHT22;6528;48.086;16.282;2023-09-12T05:06:43;24.50;1.00
12922;DHT22;6528;48.086;16.282;2023-09-12T05:09:10;24.50;1.00
12922;DHT22;6528;48.086;16.282;2023-09-12T05:11:38;24.50;1.00
12922;DHT22;6528;48.086;16.282;2023-09-12T05:14:05;24.50;1.00
12922;DHT22;6528;48.086;16.282;2023-09-12T05:16:32;24.50;1.00
12922;DHT22;6528;48.086;16.282;2023-09-12T05:19:00;24.50;1.00
12922;DHT22;6528;48.086;16.282;2023-09-12T05:21:28;24.50;1.00
12922;DHT22;6528;48.086;16.282;2023-09-12T05:23:55;24.60;1.00
12922;DHT22;6528;48.086;16.282;2023-09-12T05:26:22;24.60;1.00
12922;DHT22;6528;48.086;16.282;2023-09-12T05:28:50;24.60;1.00
12922;DHT22;6528;48.086;16.282;2023-09-12T05:31:17;24.50;1.00
12922;DHT22;6528;48.086;16.282;2023-09-12T05:33:45;24.60;1.00
12922;DHT22;6528;48.086;16.282;2023-09-12T05:36:12;24.60;1.00
12922;DHT22;6528;48.086;16.282;2023-09-12T05:38:39;24.60;1.00
12922;DHT22;6528;48.086;16.282;2023-09-12T05:41:07;24.60;1.00
12922;DHT22;6528;48.086;16.282;2023-09-12T05:43:35;24.60;1.00
12922;DHT22;6528;48.086;16.282;2023-09-12T05:46:02;24.60;1.00
12922;DHT22;6528;48.086;16.282;2023-09-12T05:48:29;24.60;1.00
12922;DHT22;6528;48.086;16.282;2023-09-12T05:50:57;24.60;1.00
12922;DHT22;6528;48.086;16.282;2023-09-12T05:53:24;24.60;1.00
12922;DHT22;6528;48.086;16.282;2023-09-12T05:55:51;24.60;1.00
12922;DHT22;6528;48.086;16.282;2023-09-12T05:58:19;24.60;1.00
12922;DHT22;6528;48.086;16.282;2023-09-12T06:00:46;24.70;1.00
12922;DHT22;6528;48.086;16.282;2023-09-12T06:03:15;24.70;1.00
12922;DHT22;6528;48.086;16.282;2023-09-12T06:05:43;24.70;1.00
12922;DHT22;6528;48.086;16.282;2023-09-12T06:08:11;24.70;1.00
12922;DHT22;6528;48.086;16.282;2023-09-12T06:10:38;24.70;1.00
12922;DHT22;6528;48.086;16.282;2023-09-12T06:13:06;24.70;1.00
12922;DHT22;6528;48.086;16.282;2023-09-12T06:15:35;24.70;1.00
12922;DHT22;6528;48.086;16.282;2023-09-12T06:18:03;24.70;1.00
12922;DHT22;6528;48.086;16.282;2023-09-12T06:20:30;24.70;1.00
12922;DHT22;6528;48.086;16.282;2023-09-12T06:22:58;24.70;1.00
12922;DHT22;6528;48.086;16.282;2023-09-12T06:25:26;24.70;1.00
12922;DHT22;6528;48.086;16.282;2023-09-12T06:27:53;24.70;1.00
12922;DHT22;6528;48.086;16.282;2023-09-12T06:30:21;24.70;1.00
12922;DHT22;6528;48.086;16.282;2023-09-12T06:32:48;24.70;1.00
12922;DHT22;6528;48.086;16.282;2023-09-12T06:35:16;24.80;1.00
12922;DHT22;6528;48.086;16.282;2023-09-12T06:37:44;24.80;1.00
12922;DHT22;6528;48.086;16.282;2023-09-12T06:40:11;24.70;1.00
12922;DHT22;6528;48.086;16.282;2023-09-12T06:42:38;24.80;1.00
12922;DHT22;6528;48.086;16.282;2023-09-12T06:45:06;24.80;1.00
12922;DHT22;6528;48.086;16.282;2023-09-12T06:47:34;24.80;1.00
12922;DHT22;6528;48.086;16.282;2023-09-12T06:50:01;24.80;1.00
12922;DHT22;6528;48.086;16.282;2023-09-12T06:52:30;24.80;1.00
12922;DHT22;6528;48.086;16.282;2023-09-12T06:54:57;24.80;1.00
12922;DHT22;6528;48.086;16.282;2023-09-12T06:57:24;24.80;1.00
12922;DHT22;6528;48.086;16.282;2023-09-12T06:59:52;24.80;1.00
12922;DHT22;6528;48.086;16.282;2023-09-12T07:02:20;24.80;1.00
12922;DHT22;6528;48.086;16.282;2023-09-12T07:04:48;24.80;1.00
12922;DHT22;6528;48.086;16.282;2023-09-12T07:07:16;24.80;1.00
12922;DHT22;6528;48.086;16.282;2023-09-12T07:09:43;24.80;1.00
12922;DHT22;6528;48.086;16.282;2023-09-12T07:12:10;24.90;1.00
12922;DHT22;6528;48.086;16.282;2023-09-12T07:14:38;24.90;1.00
12922;DHT22;6528;48.086;16.282;2023-09-12T07:17:06;24.90;1.00
12922;DHT22;6528;48.086;16.282;2023-09-12T07:19:34;24.90;1.00
12922;DHT22;6528;48.086;16.282;2023-09-12T07:22:01;24.90;1.00
12922;DHT22;6528;48.086;16.282;2023-09-12T07:24:28;24.90;1.00
12922;DHT22;6528;48.086;16.282;2023-09-12T07:26:56;25.00;1.00
12922;DHT22;6528;48.086;16.282;2023-09-12T07:29:24;25.00;1.00
12922;DHT22;6528;48.086;16.282;2023-09-12T07:31:53;25.00;1.00
12922;DHT22;6528;48.086;16.282;2023-09-12T07:34:21;25.00;1.00
12922;DHT22;6528;48.086;16.282;2023-09-12T07:36:48;25.10;1.00
12922;DHT22;6528;48.086;16.282;2023-09-12T07:39:18;25.10;1.00
12922;DHT22;6528;48.086;16.282;2023-09-12T07:41:46;25.10;1.00
12922;DHT22;6528;48.086;16.282;2023-09-12T07:44:13;25.20;1.00
12922;DHT22;6528;48.086;16.282;2023-09-12T07:46:43;25.20;1.00
12922;DHT22;6528;48.086;16.282;2023-09-12T07:49:11;25.40;1.00
12922;DHT22;6528;48.086;16.282;2023-09-12T07:51:38;25.40;1.00
12922;DHT22;6528;48.086;16.282;2023-09-12T07:54:05;25.50;1.00
12922;DHT22;6528;48.086;16.282;2023-09-12T07:56:33;25.60;1.00
12922;DHT22;6528;48.086;16.282;2023-09-12T07:59:00;25.60;1.00
12922;DHT22;6528;48.086;16.282;2023-09-12T08:01:27;25.60;1.00
12922;DHT22;6528;48.086;16.282;2023-09-12T08:03:55;25.70;1.00
12922;DHT22;6528;48.086;16.282;2023-09-12T08:06:22;25.70;1.00
12922;DHT22;6528;48.086;16.282;2023-09-12T08:08:51;25.80;1.00
12922;DHT22;6528;48.086;16.282;2023-09-12T08:11:18;25.70;1.00
12922;DHT22;6528;48.086;16.282;2023-09-12T08:13:48;25.80;1.00
12922;DHT22;6528;48.086;16.282;2023-09-12T08:16:16;25.90;1.00
12922;DHT22;6528;48.086;16.282;2023-09-12T08:18:44;25.80;1.00
12922;DHT22;6528;48.086;16.282;2023-09-12T08:21:11;25.80;1.00
12922;DHT22;6528;48.086;16.282;2023-09-12T08:23:39;25.90;1.00
12922;DHT22;6528;48.086;16.282;2023-09-12T08:26:06;25.90;1.00
12922;DHT22;6528;48.086;16.282;2023-09-12T08:28:34;25.90;1.00
12922;DHT22;6528;48.086;16.282;2023-09-12T08:31:02;26.00;1.00
12922;DHT22;6528;48.086;16.282;2023-09-12T08:33:29;26.00;1.00
12922;DHT22;6528;48.086;16.282;2023-09-12T08:35:57;26.10;1.00
12922;DHT22;6528;48.086;16.282;2023-09-12T08:38:24;26.20;1.00
12922;DHT22;6528;48.086;16.282;2023-09-12T08:40:51;26.20;1.00
12922;DHT22;6528;48.086;16.282;2023-09-12T08:43:20;26.30;1.00
12922;DHT22;6528;48.086;16.282;2023-09-12T08:45:47;26.40;1.00
12922;DHT22;6528;48.086;16.282;2023-09-12T08:50:44;26.40;1.00
12922;DHT22;6528;48.086;16.282;2023-09-12T08:53:13;26.40;1.00
12922;DHT22;6528;48.086;16.282;2023-09-12T08:55:42;26.40;1.00
12922;DHT22;6528;48.086;16.282;2023-09-12T08:58:09;26.50;1.00
12922;DHT22;6528;48.086;16.282;2023-09-12T09:00:38;26.60;1.00
12922;DHT22;6528;48.086;16.282;2023-09-12T09:03:06;26.50;1.00
12922;DHT22;6528;48.086;16.282;2023-09-12T09:05:35;26.50;1.00
12922;DHT22;6528;48.086;16.282;2023-09-12T09:08:04;26.50;1.00
12922;DHT22;6528;48.086;16.282;2023-09-12T09:10:31;26.50;1.00
12922;DHT22;6528;48.086;16.282;2023-09-12T09:13:17;26.60;1.00
12922;DHT22;6528;48.086;16.282;2023-09-12T09:15:46;26.70;1.00
12922;DHT22;6528;48.086;16.282;2023-09-12T09:18:14;26.80;1.00
12922;DHT22;6528;48.086;16.282;2023-09-12T09:20:41;26.90;1.00
12922;DHT22;6528;48.086;16.282;2023-09-12T09:23:12;26.90;1.00
12922;DHT22;6528;48.086;16.282;2023-09-12T09:25:42;26.90;1.00
12922;DHT22;6528;48.086;16.282;2023-09-12T09:28:22;27.00;1.00
12922;DHT22;6528;48.086;16.282;2023-09-12T09:30:51;27.00;1.00
12922;DHT22;6528;48.086;16.282;2023-09-12T09:33:20;27.00;1.00
12922;DHT22;6528;48.086;16.282;2023-09-12T09:35:48;27.10;1.00
12922;DHT22;6528;48.086;16.282;2023-09-12T09:38:19;27.10;1.00
12922;DHT22;6528;48.086;16.282;2023-09-12T09:40:48;27.20;1.00
12922;DHT22;6528;48.086;16.282;2023-09-12T09:43:22;27.20;1.00
12922;DHT22;6528;48.086;16.282;2023-09-12T09:45:50;27.30;1.00
12922;DHT22;6528;48.086;16.282;2023-09-12T09:48:24;27.30;1.00
12922;DHT22;6528;48.086;16.282;2023-09-12T09:51:03;27.30;1.00
12922;DHT22;6528;48.086;16.282;2023-09-12T09:56:10;27.40;1.00
12922;DHT22;6528;48.086;16.282;2023-09-12T09:58:54;27.40;1.00
12922;DHT22;6528;48.086;16.282;2023-09-12T10:01:28;27.40;1.00
12922;DHT22;6528;48.086;16.282;2023-09-12T10:04:00;27.50;1.00
12922;DHT22;6528;48.086;16.282;2023-09-12T10:06:29;27.50;1.00
12922;DHT22;6528;48.086;16.282;2023-09-12T10:08:58;27.60;1.00
12922;DHT22;6528;48.086;16.282;2023-09-12T10:11:28;27.60;1.00
12922;DHT22;6528;48.086;16.282;2023-09-12T10:14:02;27.60;1.00
12922;DHT22;6528;48.086;16.282;2023-09-12T10:16:35;27.70;1.00
12922;DHT22;6528;48.086;16.282;2023-09-12T10:21:32;27.60;1.00
12922;DHT22;6528;48.086;16.282;2023-09-12T10:24:03;27.70;1.00
12922;DHT22;6528;48.086;16.282;2023-09-12T10:26:34;27.70;1.00
12922;DHT22;6528;48.086;16.282;2023-09-12T10:29:02;27.70;1.00
12922;DHT22;6528;48.086;16.282;2023-09-12T10:31:32;27.70;1.00
12922;DHT22;6528;48.086;16.282;2023-09-12T10:34:01;27.60;1.00
12922;DHT22;6528;48.086;16.282;2023-09-12T10:36:31;27.60;1.00
12922;DHT22;6528;48.086;16.282;2023-09-12T10:38:59;27.50;1.00
12922;DHT22;6528;48.086;16.282;2023-09-12T10:41:27;27.50;1.00
12922;DHT22;6528;48.086;16.282;2023-09-12T10:43:56;27.30;1.00
12922;DHT22;6528;48.086;16.282;2023-09-12T10:46:25;27.30;1.00
12922;DHT22;6528;48.086;16.282;2023-09-12T10:48:53;27.30;1.00
12922;DHT22;6528;48.086;16.282;2023-09-12T10:51:21;27.20;1.00
12922;DHT22;6528;48.086;16.282;2023-09-12T10:53:49;27.20;1.00
12922;DHT22;6528;48.086;16.282;2023-09-12T10:56:19;27.10;1.00
12922;DHT22;6528;48.086;16.282;2023-09-12T11:01:38;27.00;1.00
12922;DHT22;6528;48.086;16.282;2023-09-12T11:06:51;26.90;1.00
12922;DHT22;6528;48.086;16.282;2023-09-12T11:09:26;26.90;1.00
12922;DHT22;6528;48.086;16.282;2023-09-12T11:12:02;26.90;1.00
12922;DHT22;6528;48.086;16.282;2023-09-12T11:14:30;26.80;1.00
12922;DHT22;6528;48.086;16.282;2023-09-12T11:19:46;26.80;1.00
12922;DHT22;6528;48.086;16.282;2023-09-12T11:22:30;26.80;1.00
12922;DHT22;6528;48.086;16.282;2023-09-12T11:25:02;26.80;1.00
12922;DHT22;6528;48.086;16.282;2023-09-12T11:30:24;26.70;1.00
12922;DHT22;6528;48.086;16.282;2023-09-12T11:32:54;26.70;1.00
12922;DHT22;6528;48.086;16.282;2023-09-12T11:35:23;26.60;1.00
12922;DHT22;6528;48.086;16.282;2023-09-12T11:37:56;26.60;1.00
12922;DHT22;6528;48.086;16.282;2023-09-12T11:40:43;26.60;1.00
12922;DHT22;6528;48.086;16.282;2023-09-12T11:43:23;26.60;1.00
12922;DHT22;6528;48.086;16.282;2023-09-12T11:45:51;26.60;1.00
12922;DHT22;6528;48.086;16.282;2023-09-12T11:48:19;26.50;1.00
12922;DHT22;6528;48.086;16.282;2023-09-12T11:50:56;26.50;1.00
12922;DHT22;6528;48.086;16.282;2023-09-12T11:53:27;26.50;1.00
12922;DHT22;6528;48.086;16.282;2023-09-12T11:56:04;26.50;1.00
12922;DHT22;6528;48.086;16.282;2023-09-12T11:58:31;26.40;1.00
12922;DHT22;6528;48.086;16.282;2023-09-12T12:00:59;26.40;1.00
12922;DHT22;6528;48.086;16.282;2023-09-12T12:03:27;26.40;1.00
12922;DHT22;6528;48.086;16.282;2023-09-12T12:05:56;26.40;1.00
12922;DHT22;6528;48.086;16.282;2023-09-12T12:08:25;26.40;1.00
12922;DHT22;6528;48.086;16.282;2023-09-12T12:10:59;26.30;1.00
12922;DHT22;6528;48.086;16.282;2023-09-12T12:13:26;26.30;1.00
12922;DHT22;6528;48.086;16.282;2023-09-12T12:16:18;26.30;1.00
12922;DHT22;6528;48.086;16.282;2023-09-12T12:18:45;26.30;1.00
12922;DHT22;6528;48.086;16.282;2023-09-12T12:21:13;26.30;1.00
12922;DHT22;6528;48.086;16.282;2023-09-12T12:23:41;26.30;1.00
12922;DHT22;6528;48.086;16.282;2023-09-12T12:26:09;26.30;1.00
12922;DHT22;6528;48.086;16.282;2023-09-12T12:28:38;26.30;1.00
12922;DHT22;6528;48.086;16.282;2023-09-12T12:31:05;26.30;1.00
12922;DHT22;6528;48.086;16.282;2023-09-12T12:33:33;26.30;1.00
12922;DHT22;6528;48.086;16.282;2023-09-12T12:36:20;26.30;1.00
12922;DHT22;6528;48.086;16.282;2023-09-12T12:38:49;26.20;1.00
12922;DHT22;6528;48.086;16.282;2023-09-12T12:41:36;26.20;1.00
12922;DHT22;6528;48.086;16.282;2023-09-12T12:44:17;26.20;1.00
12922;DHT22;6528;48.086;16.282;2023-09-12T12:46:49;26.20;1.00
12922;DHT22;6528;48.086;16.282;2023-09-12T12:49:17;26.20;1.00
12922;DHT22;6528;48.086;16.282;2023-09-12T12:51:45;26.20;1.00
12922;DHT22;6528;48.086;16.282;2023-09-12T12:54:13;26.20;1.00
12922;DHT22;6528;48.086;16.282;2023-09-12T12:56:43;26.20;1.00
12922;DHT22;6528;48.086;16.282;2023-09-12T12:59:12;26.10;1.00
12922;DHT22;6528;48.086;16.282;2023-09-12T13:01:39;26.10;1.00
12922;DHT22;6528;48.086;16.282;2023-09-12T13:04:10;26.10;1.00
12922;DHT22;6528;48.086;16.282;2023-09-12T13:06:38;26.10;1.00
12922;DHT22;6528;48.086;16.282;2023-09-12T13:09:07;26.10;1.00
12922;DHT22;6528;48.086;16.282;2023-09-12T13:11:36;26.10;1.00
12922;DHT22;6528;48.086;16.282;2023-09-12T13:14:04;26.10;1.00
12922;DHT22;6528;48.086;16.282;2023-09-12T13:16:39;26.10;1.00
12922;DHT22;6528;48.086;16.282;2023-09-12T13:19:09;26.10;1.00
12922;DHT22;6528;48.086;16.282;2023-09-12T13:21:38;26.10;1.00
12922;DHT22;6528;48.086;16.282;2023-09-12T13:24:06;26.00;1.00
12922;DHT22;6528;48.086;16.282;2023-09-12T13:26:33;26.10;1.00
12922;DHT22;6528;48.086;16.282;2023-09-12T13:29:01;26.10;1.00
12922;DHT22;6528;48.086;16.282;2023-09-12T13:31:28;26.00;1.00
12922;DHT22;6528;48.086;16.282;2023-09-12T13:33:55;26.00;1.00
12922;DHT22;6528;48.086;16.282;2023-09-12T13:36:23;26.00;1.00
12922;DHT22;6528;48.086;16.282;2023-09-12T13:38:53;26.00;1.00
12922;DHT22;6528;48.086;16.282;2023-09-12T13:41:20;26.00;1.00
12922;DHT22;6528;48.086;16.282;2023-09-12T13:43:50;26.00;1.00
12922;DHT22;6528;48.086;16.282;2023-09-12T13:46:17;26.00;1.00
12922;DHT22;6528;48.086;16.282;2023-09-12T13:48:45;26.00;1.00
12922;DHT22;6528;48.086;16.282;2023-09-12T13:51:14;26.00;99.90
12922;DHT22;6528;48.086;16.282;2023-09-12T13:53:42;26.00;1.00
12922;DHT22;6528;48.086;16.282;2023-09-12T13:56:09;26.00;1.00
12922;DHT22;6528;48.086;16.282;2023-09-12T13:58:46;26.00;1.00
12922;DHT22;6528;48.086;16.282;2023-09-12T14:01:15;26.00;1.00
12922;DHT22;6528;48.086;16.282;2023-09-12T14:03:59;26.00;1.00
12922;DHT22;6528;48.086;16.282;2023-09-12T14:06:26;26.00;1.00
12922;DHT22;6528;48.086;16.282;2023-09-12T14:08:55;26.00;1.00
12922;DHT22;6528;48.086;16.282;2023-09-12T14:11:23;26.00;1.00
12922;DHT22;6528;48.086;16.282;2023-09-12T14:14:02;26.00;1.00
12922;DHT22;6528;48.086;16.282;2023-09-12T14:16:41;26.00;1.00
12922;DHT22;6528;48.086;16.282;2023-09-12T14:19:14;26.00;1.00
12922;DHT22;6528;48.086;16.282;2023-09-12T14:21:42;26.00;1.00
12922;DHT22;6528;48.086;16.282;2023-09-12T14:24:12;25.90;1.00
12922;DHT22;6528;48.086;16.282;2023-09-12T14:26:40;25.90;1.00
12922;DHT22;6528;48.086;16.282;2023-09-12T14:29:08;26.00;1.00
12922;DHT22;6528;48.086;16.282;2023-09-12T14:31:35;25.90;1.00
12922;DHT22;6528;48.086;16.282;2023-09-12T14:34:04;25.90;1.00
12922;DHT22;6528;48.086;16.282;2023-09-12T14:36:33;25.90;1.00
12922;DHT22;6528;48.086;16.282;2023-09-12T14:39:00;25.90;1.00
12922;DHT22;6528;48.086;16.282;2023-09-12T14:41:28;25.90;1.00
12922;DHT22;6528;48.086;16.282;2023-09-12T14:43:55;25.90;1.00
12922;DHT22;6528;48.086;16.282;2023-09-12T14:46:22;25.90;1.00
12922;DHT22;6528;48.086;16.282;2023-09-12T14:48:50;25.90;1.00
12922;DHT22;6528;48.086;16.282;2023-09-12T14:51:28;25.90;1.00
12922;DHT22;6528;48.086;16.282;2023-09-12T14:54:00;25.90;1.00
12922;DHT22;6528;48.086;16.282;2023-09-12T14:56:27;25.90;1.00
12922;DHT22;6528;48.086;16.282;2023-09-12T14:58:55;25.90;1.00
12922;DHT22;6528;48.086;16.282;2023-09-12T15:01:22;25.90;1.00
12922;DHT22;6528;48.086;16.282;2023-09-12T15:03:52;25.90;1.00
12922;DHT22;6528;48.086;16.282;2023-09-12T15:06:20;25.90;1.00
12922;DHT22;6528;48.086;16.282;2023-09-12T15:08:49;25.90;1.00
12922;DHT22;6528;48.086;16.282;2023-09-12T15:11:17;25.90;1.00
12922;DHT22;6528;48.086;16.282;2023-09-12T15:13:44;25.90;1.00
12922;DHT22;6528;48.086;16.282;2023-09-12T15:16:14;25.90;1.00
12922;DHT22;6528;48.086;16.282;2023-09-12T15:18:42;25.90;1.00
12922;DHT22;6528;48.086;16.282;2023-09-12T15:21:09;25.80;1.00
12922;DHT22;6528;48.086;16.282;2023-09-12T15:23:37;25.90;1.00
12922;DHT22;6528;48.086;16.282;2023-09-12T15:26:04;25.90;1.00
12922;DHT22;6528;48.086;16.282;2023-09-12T15:28:32;25.90;1.00
12922;DHT22;6528;48.086;16.282;2023-09-12T15:30:59;25.90;1.00
12922;DHT22;6528;48.086;16.282;2023-09-12T15:33:30;25.90;1.00
12922;DHT22;6528;48.086;16.282;2023-09-12T15:35:57;25.90;1.00
12922;DHT22;6528;48.086;16.282;2023-09-12T15:38:26;25.90;1.00
12922;DHT22;6528;48.086;16.282;2023-09-12T15:40:54;25.80;1.00
12922;DHT22;6528;48.086;16.282;2023-09-12T15:43:25;25.80;1.00
12922;DHT22;6528;48.086;16.282;2023-09-12T15:45:53;25.80;1.00
12922;DHT22;6528;48.086;16.282;2023-09-12T15:48:21;25.80;1.00
12922;DHT22;6528;48.086;16.282;2023-09-12T15:50:49;25.80;1.00
12922;DHT22;6528;48.086;16.282;2023-09-12T15:53:16;25.80;1.00
12922;DHT22;6528;48.086;16.282;2023-09-12T15:55:44;25.80;1.00
12922;DHT22;6528;48.086;16.282;2023-09-12T15:58:11;25.80;1.00
12922;DHT22;6528;48.086;16.282;2023-09-12T16:00:39;25.80;1.00
12922;DHT22;6528;48.086;16.282;2023-09-12T16:03:07;25.80;1.00
12922;DHT22;6528;48.086;16.282;2023-09-12T16:05:35;25.80;1.00
12922;DHT22;6528;48.086;16.282;2023-09-12T16:08:02;25.80;1.00
12922;DHT22;6528;48.086;16.282;2023-09-12T16:10:30;25.80;1.00
12922;DHT22;6528;48.086;16.282;2023-09-12T16:12:57;25.80;1.00
12922;DHT22;6528;48.086;16.282;2023-09-12T16:15:24;25.80;1.00
12922;DHT22;6528;48.086;16.282;2023-09-12T16:17:52;25.80;1.00
12922;DHT22;6528;48.086;16.282;2023-09-12T16:20:19;25.80;1.00